createdAt,value
2022-09-13T00:00:49.672Z,100184.01
2022-09-13T00:06:23.170Z,100177.18
2022-09-13T00:11:29.705Z,100168.48
2022-09-13T00:16:34.818Z,100164.17
2022-09-13T00:21:38.020Z,100160.15
2022-09-13T00:26:41.383Z,100160.12
2022-09-13T00:31:45.223Z,100156.55
2022-09-13T00:36:48.571Z,100147.52
2022-09-13T00:41:53.505Z,100147.90
2022-09-13T00:46:56.725Z,100149.66
2022-09-13T00:52:10.986Z,100145.69
2022-09-13T00:57:17.759Z,100142.37
2022-09-13T01:02:21.798Z,100142.16
2022-09-13T01:07:25.058Z,100142.50
2022-09-13T01:12:53.837Z,100140.66
2022-09-13T01:17:57.270Z,100136.48
2022-09-13T01:23:36.929Z,100136.02
2022-09-13T01:28:57.020Z,100131.16
2022-09-13T01:34:03.096Z,100127.28
2022-09-13T01:39:12.790Z,100124.20
2022-09-13T01:44:48.578Z,100117.91
2022-09-13T01:50:42.856Z,100114.52
2022-09-13T01:55:51.053Z,100108.71
2022-09-13T02:01:02.741Z,100103.87
2022-09-13T02:06:12.046Z,100089.77
2022-09-13T02:11:17.593Z,100077.80
2022-09-13T02:16:44.761Z,100073.48
2022-09-13T02:21:59.379Z,100063.29
2022-09-13T02:27:10.251Z,100059.58
2022-09-13T02:32:19.101Z,100057.77
2022-09-13T02:37:30.542Z,100055.35
2022-09-13T02:42:59.109Z,100049.85
2022-09-13T02:48:11.370Z,100048.32
2022-09-13T02:53:46.699Z,100043.97
2022-09-13T02:59:20.730Z,100040.35
2022-09-13T03:04:27.709Z,100029.60
2022-09-13T03:09:38.112Z,100023.59
2022-09-13T03:14:57.513Z,100018.73
2022-09-13T03:20:38.932Z,100007.86
2022-09-13T03:26:24.469Z,100005.50
2022-09-13T03:31:41.072Z,99997.17
2022-09-13T03:37:05.275Z,99990.33
2022-09-13T03:42:24.512Z,99986.83
2022-09-13T03:47:32.650Z,99984.61
2022-09-13T03:52:36.553Z,99974.21
2022-09-13T03:57:42.260Z,99977.45
2022-09-13T04:02:51.126Z,99981.31
2022-09-13T04:07:59.255Z,99980.40
2022-09-13T04:13:02.545Z,99981.25
2022-09-13T04:18:06.104Z,99977.38
2022-09-13T04:23:11.742Z,99978.08
2022-09-13T04:28:17.415Z,99976.45
2022-09-13T04:33:21.880Z,99978.95
2022-09-13T04:38:25.101Z,99971.64
2022-09-13T04:43:35.529Z,99971.33
2022-09-13T04:48:38.976Z,99969.36
2022-09-13T04:53:45.870Z,99972.86
2022-09-13T04:58:51.297Z,99965.06
2022-09-13T05:03:55.065Z,99968.17
2022-09-13T05:08:59.300Z,99967.20
2022-09-13T05:14:02.654Z,99974.79
2022-09-13T05:19:09.266Z,99974.25
2022-09-13T05:24:12.499Z,99970.72
2022-09-13T05:29:15.949Z,99969.44
2022-09-13T05:34:19.961Z,99969.47
2022-09-13T05:39:34.004Z,99965.85
2022-09-13T05:44:42.927Z,99959.32
2022-09-13T05:50:08.625Z,99955.02
2022-09-13T05:55:10.222Z,99947.84
2022-09-13T06:00:18.518Z,99945.22
2022-09-13T06:05:22.049Z,99939.94
2022-09-13T06:10:25.610Z,99935.07
2022-09-13T06:15:28.937Z,99930.61
2022-09-13T06:20:32.862Z,99918.55
2022-09-13T06:25:36.079Z,99908.63
2022-09-13T06:30:39.471Z,99899.23
2022-09-13T06:35:43.142Z,99892.81
2022-09-13T06:40:46.905Z,99886.37
2022-09-13T06:45:51.026Z,99877.80
2022-09-13T06:50:58.816Z,99882.18
2022-09-13T06:56:04.970Z,99881.48
2022-09-13T07:01:29.698Z,99882.11
2022-09-13T07:06:37.979Z,99881.59
2022-09-13T07:11:42.403Z,99881.89
2022-09-13T07:16:47.248Z,99878.38
2022-09-13T07:21:50.914Z,99881.19
2022-09-13T07:26:54.723Z,99877.96
2022-09-13T07:31:58.940Z,99869.76
2022-09-13T07:37:02.869Z,99870.04
2022-09-13T07:42:06.268Z,99873.10
2022-09-13T07:47:09.723Z,99875.90
2022-09-13T07:52:12.990Z,99874.02
2022-09-13T07:57:16.403Z,99879.98
2022-09-13T08:02:19.796Z,99877.45
2022-09-13T08:07:23.319Z,99872.84
2022-09-13T08:12:26.518Z,99868.30
2022-09-13T08:17:29.990Z,99861.36
2022-09-13T08:22:33.343Z,99862.52
2022-09-13T08:27:36.726Z,99861.70
2022-09-13T08:32:39.953Z,99852.05
2022-09-13T08:37:43.995Z,99845.39
2022-09-13T08:42:54.624Z,99852.55
2022-09-13T08:48:21.694Z,99849.27
2022-09-13T08:53:30.399Z,99844.52
2022-09-13T08:59:00.157Z,99845.63
2022-09-13T09:04:21.557Z,99843.79
2022-09-13T09:09:26.826Z,99830.21
2022-09-13T09:14:40.259Z,99826.48
2022-09-13T09:19:48.266Z,99817.11
2022-09-13T09:24:55.095Z,99807.27
2022-09-13T09:29:58.607Z,99795.73
2022-09-13T09:35:21.165Z,99793.66
2022-09-13T09:40:26.495Z,99793.94
2022-09-13T09:45:35.066Z,99789.69
2022-09-13T09:50:43.901Z,99785.10
2022-09-13T09:55:55.366Z,99775.48
2022-09-13T10:00:59.512Z,99769.98
2022-09-13T10:06:10.335Z,99764.56
2022-09-13T10:11:13.819Z,99763.41
2022-09-13T10:16:30.131Z,99750.20
2022-09-13T10:21:36.854Z,99739.96
2022-09-13T10:26:40.653Z,99728.98
2022-09-13T10:31:46.451Z,99725.36
2022-09-13T10:37:06.519Z,99724.68
2022-09-13T10:42:11.127Z,99721.46
2022-09-13T10:47:26.532Z,99716.68
2022-09-13T10:52:35.537Z,99711.02
2022-09-13T10:57:38.878Z,99706.45
2022-09-13T11:02:54.572Z,99705.70
2022-09-13T11:08:22.038Z,99698.59
2022-09-13T11:13:53.508Z,99694.48
2022-09-13T11:19:37.614Z,99689.88
2022-09-13T11:25:02.171Z,99685.05
2022-09-13T11:30:20.551Z,99685.87
2022-09-13T11:36:09.677Z,99677.38
2022-09-13T11:41:51.272Z,99676.09
2022-09-13T11:47:14.485Z,99671.58
2022-09-13T11:52:55.564Z,99669.96
2022-09-13T11:58:02.154Z,99667.13
2022-09-13T12:03:11.493Z,99670.35
2022-09-13T12:08:22.877Z,99658.13
2022-09-13T12:13:42.845Z,99656.65
2022-09-13T12:18:54.810Z,99658.67
2022-09-13T12:24:01.051Z,99652.88
2022-09-13T12:29:26.678Z,99645.29
2022-09-13T12:34:55.574Z,99633.39
2022-09-13T12:40:12.413Z,99616.79
2022-09-13T12:45:34.182Z,99617.59
2022-09-13T12:51:02.415Z,99620.73
2022-09-13T12:56:23.291Z,99622.77
2022-09-13T13:01:35.006Z,99612.88
2022-09-13T13:06:40.886Z,99605.65
2022-09-13T13:11:47.687Z,99610.26
2022-09-13T13:16:51.308Z,99605.79
2022-09-13T13:21:55.085Z,99596.64
2022-09-13T13:27:00.902Z,99590.77
2022-09-13T13:32:12.430Z,99591.70
2022-09-13T13:37:16.139Z,99585.94
2022-09-13T13:42:28.069Z,99580.48
2022-09-13T13:47:34.396Z,99577.39
2022-09-13T13:52:41.588Z,99568.52
2022-09-13T13:58:07.903Z,99562.95
2022-09-13T14:03:24.390Z,99552.00
2022-09-13T14:08:37.000Z,99544.05
2022-09-13T14:14:07.366Z,99535.86
2022-09-13T14:19:29.139Z,99533.95
2022-09-13T14:24:40.025Z,99525.15
2022-09-13T14:29:49.330Z,99519.70
2022-09-13T14:34:58.738Z,99520.04
2022-09-13T14:46:39.430Z,99516.42
2022-09-13T14:52:10.551Z,99514.05
2022-09-13T14:57:51.430Z,99507.94
2022-09-13T15:03:04.384Z,99507.06
2022-09-13T15:08:51.411Z,99505.80
2022-09-13T15:14:20.488Z,99495.70
2022-09-13T15:19:25.445Z,99498.57
2022-09-13T15:24:43.646Z,99496.66
2022-09-13T15:30:02.700Z,99495.48
2022-09-13T15:35:37.332Z,99490.63
2022-09-13T15:40:53.625Z,99487.13
2022-09-13T15:45:58.557Z,99488.23
2022-09-13T15:51:11.002Z,99489.89
2022-09-13T15:56:22.030Z,99481.44
2022-09-13T16:01:27.898Z,99476.34
2022-09-13T16:06:33.144Z,99480.73
2022-09-13T16:11:36.382Z,99472.52
2022-09-13T16:16:42.234Z,99471.94
2022-09-13T16:21:47.065Z,99464.45
2022-09-13T16:26:52.206Z,99460.42
2022-09-13T16:32:00.596Z,99461.27
2022-09-13T16:37:05.098Z,99456.38
2022-09-13T16:42:14.526Z,99458.05
2022-09-13T16:47:18.660Z,99462.96
2022-09-13T16:52:21.988Z,99464.02
2022-09-13T16:57:26.415Z,99467.02
2022-09-13T17:02:30.648Z,99466.16
2022-09-13T17:07:35.238Z,99466.48
2022-09-13T17:12:39.424Z,99465.59
2022-09-13T17:17:44.078Z,99473.98
2022-09-13T17:22:49.643Z,99473.45
2022-09-13T17:27:59.749Z,99463.16
2022-09-13T17:33:12.182Z,99458.19
2022-09-13T17:44:23.322Z,99454.20
2022-09-13T17:49:31.225Z,99454.71
2022-09-13T17:54:43.545Z,99454.05
2022-09-13T17:59:53.482Z,99456.25
2022-09-13T18:05:05.715Z,99452.11
2022-09-13T18:10:45.701Z,99462.96
2022-09-13T18:16:20.708Z,99463.40
2022-09-13T18:21:31.049Z,99460.17
2022-09-13T18:26:44.563Z,99462.91
2022-09-13T18:31:53.712Z,99459.20
2022-09-13T18:37:12.832Z,99464.05
2022-09-13T18:42:33.368Z,99467.50
2022-09-13T18:47:47.905Z,99460.93
2022-09-13T18:52:57.019Z,99464.54
2022-09-13T18:58:08.696Z,99460.80
2022-09-13T19:03:26.335Z,99458.18
2022-09-13T19:08:32.474Z,99455.42
2022-09-13T19:13:41.910Z,99460.92
2022-09-13T19:18:53.680Z,99463.62
2022-09-13T19:24:10.716Z,99469.36
2022-09-13T19:29:22.709Z,99470.30
2022-09-13T19:34:28.749Z,99471.75
2022-09-13T19:39:36.742Z,99472.82
2022-09-13T19:44:49.901Z,99478.27
2022-09-13T19:49:56.209Z,99473.88
2022-09-13T19:55:04.059Z,99477.71
2022-09-13T20:00:09.675Z,99477.92
2022-09-13T20:05:13.583Z,99474.73
2022-09-13T20:10:18.393Z,99473.04
2022-09-13T20:15:27.440Z,99468.91
2022-09-13T20:20:31.938Z,99468.38
2022-09-13T20:25:40.292Z,99468.90
2022-09-13T20:31:28.942Z,99471.48
2022-09-13T20:36:39.529Z,99469.64
2022-09-13T20:41:56.042Z,99465.42
2022-09-13T20:47:12.858Z,99458.40
2022-09-13T20:52:24.780Z,99453.30
2022-09-13T20:57:36.192Z,99453.16
2022-09-13T21:02:44.663Z,99454.98
2022-09-13T21:08:10.756Z,99456.58
2022-09-13T21:13:17.060Z,99455.60
2022-09-13T21:18:20.723Z,99453.41
2022-09-13T21:23:24.956Z,99449.90
2022-09-13T21:28:31.380Z,99450.49
2022-09-13T21:33:35.876Z,99454.58
2022-09-13T21:38:40.196Z,99457.70
2022-09-13T21:43:43.878Z,99464.60
2022-09-13T21:48:53.734Z,99458.90
2022-09-13T21:53:59.479Z,99457.51
2022-09-13T21:59:05.823Z,99454.94
2022-09-13T22:04:17.281Z,99448.81
2022-09-13T22:09:23.317Z,99442.04
2022-09-13T22:14:26.835Z,99434.86
2022-09-13T22:19:31.879Z,99429.64
2022-09-13T22:24:40.618Z,99432.09
2022-09-13T22:29:44.081Z,99429.28
2022-09-13T22:34:49.088Z,99425.96
2022-09-13T22:39:53.189Z,99420.70
2022-09-13T22:44:56.675Z,99419.66
2022-09-13T22:50:02.238Z,99427.15
2022-09-13T22:55:07.381Z,99429.59
2022-09-13T23:00:14.755Z,99433.58
2022-09-13T23:05:19.372Z,99432.81
2022-09-13T23:10:33.318Z,99438.16
2022-09-13T23:15:42.898Z,99433.25
2022-09-13T23:21:02.609Z,99431.44
2022-09-13T23:26:11.463Z,99434.08
2022-09-13T23:31:16.259Z,99432.02
2022-09-13T23:36:23.124Z,99435.02
2022-09-13T23:41:31.414Z,99437.77
2022-09-13T23:46:45.293Z,99422.69
2022-09-13T23:51:50.867Z,99416.61
2022-09-13T23:56:57.196Z,99422.45
